createdAt,value
2023-05-20T00:03:22.658Z,4.35
2023-05-20T00:08:25.673Z,4.93
2023-05-20T00:13:27.990Z,5.10
2023-05-20T00:18:30.412Z,3.55
2023-05-20T00:23:32.732Z,3.50
2023-05-20T00:28:35.118Z,3.88
2023-05-20T00:33:37.796Z,3.63
2023-05-20T00:38:43.088Z,3.40
2023-05-20T00:43:45.487Z,4.35
2023-05-20T00:48:48.266Z,4.10
2023-05-20T00:53:51.527Z,3.25
2023-05-20T00:58:54.291Z,3.47
2023-05-20T01:03:56.940Z,3.45
2023-05-20T01:09:00.213Z,3.28
2023-05-20T01:14:06.993Z,3.92
2023-05-20T01:19:22.236Z,3.65
2023-05-20T01:24:24.790Z,3.28
2023-05-20T01:29:28.313Z,3.92
2023-05-20T01:34:31.070Z,4.35
2023-05-20T01:39:36.065Z,2.78
2023-05-20T01:44:38.667Z,3.20
2023-05-20T01:49:41.960Z,5.13
2023-05-20T01:54:51.059Z,4.00
2023-05-20T01:59:55.018Z,5.18
2023-05-20T02:04:58.637Z,5.03
2023-05-20T02:10:01.301Z,4.20
2023-05-20T02:15:05.710Z,4.60
2023-05-20T02:20:08.773Z,4.90
2023-05-20T02:25:11.479Z,4.03
2023-05-20T02:30:15.542Z,5.40
2023-05-20T02:35:17.986Z,5.07
2023-05-20T02:40:20.916Z,5.53
2023-05-20T02:45:23.536Z,4.18
2023-05-20T02:50:27.440Z,4.80
2023-05-20T02:55:35.419Z,5.53
2023-05-20T03:00:41.285Z,4.93
2023-05-20T03:05:46.497Z,4.72
2023-05-20T03:10:50.097Z,5.22
2023-05-20T03:15:53.307Z,5.20
2023-05-20T03:20:56.503Z,5.75
2023-05-20T03:25:59.164Z,6.95
2023-05-20T03:31:02.999Z,7.22
2023-05-20T03:36:06.881Z,5.32
2023-05-20T03:41:10.644Z,6.88
2023-05-20T03:46:13.517Z,7.78
2023-05-20T03:51:16.981Z,6.28
2023-05-20T03:56:21.393Z,5.80
2023-05-20T04:01:25.807Z,5.25
2023-05-20T04:06:28.576Z,4.47
2023-05-20T04:11:33.030Z,5.60
2023-05-20T04:16:37.548Z,6.72
2023-05-20T04:21:43.183Z,6.72
2023-05-20T04:26:47.184Z,7.30
2023-05-20T04:31:49.845Z,6.75
2023-05-20T04:36:52.888Z,6.55
2023-05-20T04:41:55.465Z,7.97
2023-05-20T04:46:59.796Z,5.90
2023-05-20T04:52:05.007Z,7.68
2023-05-20T04:57:07.708Z,7.40
2023-05-20T05:02:11.565Z,6.38
2023-05-20T05:07:14.640Z,8.25
2023-05-20T05:12:17.909Z,7.43
2023-05-20T05:17:20.908Z,8.38
2023-05-20T05:22:23.504Z,8.45
2023-05-20T05:27:28.321Z,8.23
2023-05-20T05:32:31.260Z,8.75
2023-05-20T05:37:33.831Z,8.73
2023-05-20T05:42:36.406Z,8.15
2023-05-20T05:47:39.162Z,6.75
2023-05-20T05:52:41.813Z,6.88
2023-05-20T05:57:46.170Z,5.97
2023-05-20T06:02:51.529Z,6.07
2023-05-20T06:08:06.556Z,5.72
2023-05-20T06:13:11.360Z,5.72
2023-05-20T06:18:14.023Z,5.80
2023-05-20T06:23:16.755Z,5.43
2023-05-20T06:28:31.973Z,5.13
2023-05-20T06:33:34.436Z,5.32
2023-05-20T06:38:41.946Z,5.97
2023-05-20T06:43:44.502Z,6.35
2023-05-20T06:49:07.080Z,8.52
2023-05-20T06:54:10.873Z,10.23
2023-05-20T06:59:13.288Z,10.00
2023-05-20T07:04:16.839Z,9.07
2023-05-20T07:09:19.495Z,9.63
2023-05-20T07:14:22.280Z,8.68
2023-05-20T07:19:24.823Z,7.90
2023-05-20T07:24:27.577Z,7.43
2023-05-20T07:29:30.150Z,8.25
2023-05-20T07:34:32.757Z,6.03
2023-05-20T07:39:38.010Z,6.60
2023-05-20T07:44:42.240Z,5.43
2023-05-20T07:49:46.860Z,6.60
2023-05-20T07:54:49.282Z,6.72
2023-05-20T07:59:52.158Z,4.78
2023-05-20T08:04:55.503Z,5.70
2023-05-20T08:09:58.011Z,4.45
2023-05-20T08:15:02.692Z,4.22
2023-05-20T08:20:13.847Z,4.55
2023-05-20T08:25:16.562Z,5.35
2023-05-20T08:30:21.012Z,5.00
2023-05-20T08:35:24.896Z,5.78
2023-05-20T08:40:30.726Z,3.72
2023-05-20T08:45:38.256Z,3.20
2023-05-20T08:50:52.141Z,3.55
2023-05-20T08:56:03.863Z,2.70
2023-05-20T09:01:10.196Z,2.67
2023-05-20T09:06:17.395Z,3.30
2023-05-20T09:11:21.846Z,3.00
2023-05-20T09:16:24.374Z,2.55
2023-05-20T09:21:29.123Z,3.05
2023-05-20T09:26:31.523Z,3.28
2023-05-20T09:31:35.776Z,2.88
2023-05-20T09:36:40.165Z,3.10
2023-05-20T09:41:56.812Z,3.55
2023-05-20T09:47:02.090Z,4.03
2023-05-20T09:52:04.593Z,3.60
2023-05-20T09:57:07.532Z,2.95
2023-05-20T10:02:11.232Z,2.47
2023-05-20T10:07:41.681Z,4.13
2023-05-20T10:13:12.582Z,3.08
2023-05-20T10:19:14.034Z,2.53
2023-05-20T10:24:16.516Z,3.10
2023-05-20T10:29:23.599Z,3.88
2023-05-20T10:34:26.695Z,3.35
2023-05-20T10:39:30.253Z,3.00
2023-05-20T10:44:50.256Z,3.70
2023-05-20T10:49:52.658Z,3.90
2023-05-20T10:54:58.529Z,3.40
2023-05-20T11:00:01.381Z,3.20
2023-05-20T11:05:04.955Z,4.03
2023-05-20T11:10:13.484Z,4.57
2023-05-20T11:15:21.012Z,3.83
2023-05-20T11:20:24.955Z,4.13
2023-05-20T11:25:36.351Z,4.95
2023-05-20T11:30:38.949Z,5.43
2023-05-20T11:35:49.270Z,5.03
2023-05-20T11:40:53.732Z,4.63
2023-05-20T11:46:01.232Z,4.50
2023-05-20T11:51:03.981Z,5.32
2023-05-20T11:56:09.149Z,5.70
2023-05-20T12:01:21.818Z,4.80
2023-05-20T12:06:25.026Z,3.38
2023-05-20T12:11:27.313Z,4.15
2023-05-20T12:16:32.039Z,3.80
2023-05-20T12:21:34.327Z,4.38
2023-05-20T12:26:38.394Z,3.83
2023-05-20T12:31:43.260Z,4.07
2023-05-20T12:36:48.708Z,4.07
2023-05-20T12:41:51.756Z,3.80
2023-05-20T12:46:55.835Z,5.38
2023-05-20T12:51:59.932Z,5.05
2023-05-20T12:57:05.440Z,3.83
2023-05-20T13:02:10.101Z,4.18
2023-05-20T13:07:14.409Z,3.78
2023-05-20T13:12:16.664Z,4.22
2023-05-20T13:17:19.732Z,3.95
2023-05-20T13:22:22.947Z,3.58
2023-05-20T13:27:25.358Z,4.45
2023-05-20T13:32:29.314Z,3.28
2023-05-20T13:37:31.578Z,4.13
2023-05-20T13:42:35.017Z,2.92
2023-05-20T13:47:37.776Z,4.35
2023-05-20T13:52:48.558Z,4.10
2023-05-20T13:57:53.353Z,6.68
2023-05-20T14:02:56.105Z,4.32
2023-05-20T14:07:58.968Z,4.60
2023-05-20T14:13:02.220Z,3.95
2023-05-20T14:18:09.037Z,5.35
2023-05-20T14:23:11.957Z,4.53
2023-05-20T14:28:14.847Z,5.30
2023-05-20T14:33:17.969Z,4.85
2023-05-20T14:38:21.544Z,4.20
2023-05-20T14:43:23.736Z,5.50
2023-05-20T14:48:25.944Z,3.47
2023-05-20T14:53:28.118Z,6.07
2023-05-20T14:58:30.362Z,3.95
2023-05-20T15:03:34.969Z,5.05
2023-05-20T15:08:37.343Z,5.20
2023-05-20T15:13:42.851Z,5.35
2023-05-20T15:18:45.723Z,4.70
2023-05-20T15:23:47.922Z,6.40
2023-05-20T15:28:51.586Z,5.38
2023-05-20T15:33:56.174Z,4.93
2023-05-20T15:38:58.549Z,3.38
2023-05-20T15:44:00.742Z,4.95
2023-05-20T15:49:03.007Z,5.45
2023-05-20T15:54:05.506Z,4.57
2023-05-20T15:59:07.722Z,5.30
2023-05-20T16:04:10.154Z,5.00
2023-05-20T16:09:12.582Z,4.78
2023-05-20T16:14:14.862Z,4.38
2023-05-20T16:19:17.172Z,4.68
2023-05-20T16:24:19.984Z,4.30
2023-05-20T16:29:22.497Z,5.32
2023-05-20T16:34:24.860Z,4.53
2023-05-20T16:39:27.042Z,5.38
2023-05-20T16:44:29.301Z,5.30
2023-05-20T16:49:31.576Z,5.13
2023-05-20T16:54:36.333Z,4.93
2023-05-20T16:59:38.735Z,3.40
2023-05-20T17:04:41.268Z,3.55
2023-05-20T17:09:43.758Z,4.72
2023-05-20T17:14:46.207Z,4.68
2023-05-20T17:19:48.514Z,3.90
2023-05-20T17:24:50.711Z,4.78
2023-05-20T17:29:52.985Z,5.13
2023-05-20T17:34:55.204Z,5.47
2023-05-20T17:39:57.578Z,4.38
2023-05-20T17:44:59.776Z,4.85
2023-05-20T17:50:02.785Z,4.50
2023-05-20T17:55:06.662Z,4.57
2023-05-20T18:00:09.511Z,4.85
2023-05-20T18:05:12.974Z,4.93
2023-05-20T18:10:15.379Z,5.47
2023-05-20T18:15:18.484Z,5.60
2023-05-20T18:20:21.187Z,5.97
2023-05-20T18:25:24.033Z,4.68
2023-05-20T18:30:26.276Z,5.68
2023-05-20T18:35:28.516Z,5.07
2023-05-20T18:40:31.000Z,5.10
2023-05-20T18:45:33.282Z,4.43
2023-05-20T18:50:35.871Z,4.20
2023-05-20T18:55:46.108Z,4.00
2023-05-20T19:00:48.578Z,5.05
2023-05-20T19:05:51.196Z,4.43
2023-05-20T19:10:53.774Z,5.50
2023-05-20T19:15:58.005Z,4.78
2023-05-20T19:21:00.192Z,4.88
2023-05-20T19:26:02.577Z,6.50
2023-05-20T19:31:04.924Z,5.53
2023-05-20T19:36:07.237Z,5.75
2023-05-20T19:41:13.537Z,6.82
2023-05-20T19:46:16.913Z,4.57
2023-05-20T19:51:19.216Z,5.70
2023-05-20T19:56:23.972Z,5.07
2023-05-20T20:01:26.639Z,4.97
2023-05-20T20:06:28.940Z,5.13
2023-05-20T20:11:31.270Z,4.10
2023-05-20T20:16:33.628Z,5.95
2023-05-20T20:21:36.432Z,6.20
2023-05-20T20:26:38.871Z,6.97
2023-05-20T20:31:41.182Z,6.82
2023-05-20T20:36:45.068Z,6.03
2023-05-20T20:41:50.901Z,6.65
2023-05-20T20:46:55.850Z,4.75
2023-05-20T20:51:58.286Z,7.93
2023-05-20T20:57:03.205Z,6.05
2023-05-20T21:02:07.724Z,7.13
2023-05-20T21:07:10.057Z,5.55
2023-05-20T21:12:12.312Z,6.78
2023-05-20T21:17:14.770Z,5.80
2023-05-20T21:22:17.087Z,4.53
2023-05-20T21:27:19.414Z,5.68
2023-05-20T21:32:23.393Z,5.13
2023-05-20T21:37:25.982Z,5.80
2023-05-20T21:42:28.974Z,7.82
2023-05-20T21:47:31.236Z,6.03
2023-05-20T21:52:34.571Z,5.22
2023-05-20T21:57:37.732Z,5.50
2023-05-20T22:02:40.104Z,5.45
2023-05-20T22:07:43.354Z,5.15
2023-05-20T22:12:45.812Z,6.75
2023-05-20T22:17:48.376Z,8.32
2023-05-20T22:22:50.756Z,5.68
2023-05-20T22:27:53.001Z,5.13
2023-05-20T22:32:56.284Z,6.43
2023-05-20T22:38:00.447Z,6.45
2023-05-20T22:43:06.178Z,5.63
2023-05-20T22:48:08.569Z,4.90
2023-05-20T22:53:11.175Z,5.32
2023-05-20T22:58:13.641Z,4.70
2023-05-20T23:03:18.340Z,3.83
2023-05-20T23:08:23.293Z,5.53
2023-05-20T23:13:28.522Z,5.82
2023-05-20T23:18:36.430Z,4.97
2023-05-20T23:23:44.147Z,4.65
2023-05-20T23:28:46.385Z,4.50
2023-05-20T23:33:49.261Z,4.65
2023-05-20T23:38:53.083Z,4.15
2023-05-20T23:43:55.321Z,4.18
2023-05-20T23:49:01.851Z,4.30
2023-05-20T23:54:04.276Z,6.85
2023-05-20T23:59:06.609Z,4.95
